RYR83JF LKTB-EGSS
Flight info
| Callsign | RYR83JF |
|---|---|
| Flight time | N/A |
| Altitude | 36000 |
| Route | TUMKA DCT VLM DCT RAPET DCT MASEK DCT ARPEG DCT NOGRO M40 RINIS |
| Aircraft | B738/M-SDE2E3FGHIRWXY/LB1 |
Departure
| Time | 2026-04-23 12:42 |
|---|---|
| Airport | Brno-Tuřany Airport (LKTB) |
Arrival
| Time | N/A |
|---|---|
| Airport | London Stansted Airport (EGSS) |
| Time | Latitude | Longitude | Altitude | Speed | Heading |
|---|---|---|---|---|---|
| 2026-04-23 12:13 | 49.15386 | 16.69104 | 744 ft | 0 kts | 188° |
| 2026-04-23 12:37 | 49.15379 | 16.69102 | 783 ft | 3 kts | 188° |
| 2026-04-23 12:37 | 49.15346 | 16.69129 | 758 ft | 8 kts | 110° |
| 2026-04-23 12:37 | 49.15335 | 16.69252 | 758 ft | 16 kts | 97° |
| 2026-04-23 12:38 | 49.15318 | 16.69461 | 758 ft | 23 kts | 97° |
| 2026-04-23 12:38 | 49.15294 | 16.69720 | 758 ft | 25 kts | 98° |
| 2026-04-23 12:38 | 49.15272 | 16.69973 | 758 ft | 23 kts | 97° |
| 2026-04-23 12:38 | 49.15253 | 16.70209 | 758 ft | 22 kts | 97° |
| 2026-04-23 12:39 | 49.15233 | 16.70434 | 758 ft | 21 kts | 97° |
| 2026-04-23 12:39 | 49.15214 | 16.70656 | 758 ft | 21 kts | 97° |
| 2026-04-23 12:39 | 49.15196 | 16.70871 | 760 ft | 20 kts | 97° |
| 2026-04-23 12:39 | 49.15178 | 16.71079 | 760 ft | 19 kts | 97° |
| 2026-04-23 12:40 | 49.15160 | 16.71198 | 760 ft | 3 kts | 135° |
| 2026-04-23 12:40 | 49.15135 | 16.71205 | 760 ft | 6 kts | 182° |
| 2026-04-23 12:40 | 49.15097 | 16.71198 | 760 ft | 10 kts | 187° |
| 2026-04-23 12:40 | 49.15015 | 16.71181 | 758 ft | 13 kts | 189° |
| 2026-04-23 12:41 | 49.14985 | 16.71096 | 759 ft | 7 kts | 278° |
| 2026-04-23 12:41 | 49.14987 | 16.71072 | 758 ft | 0 kts | 277° |
| 2026-04-23 12:41 | 49.15009 | 16.70826 | 759 ft | 61 kts | 277° |
| 2026-04-23 12:41 | 49.15099 | 16.69808 | 760 ft | 129 kts | 277° |
| 2026-04-23 12:42 | 49.15213 | 16.68278 | 1238 ft | 148 kts | 282° |
| 2026-04-23 12:42 | 49.15373 | 16.66749 | 2120 ft | 151 kts | 284° |
| 2026-04-23 12:42 | 49.15507 | 16.65100 | 2865 ft | 163 kts | 283° |
| 2026-04-23 12:42 | 49.15661 | 16.63273 | 3257 ft | 190 kts | 283° |
| 2026-04-23 12:43 | 49.15847 | 16.61136 | 3512 ft | 213 kts | 283° |
| 2026-04-23 12:43 | 49.16044 | 16.58837 | 4108 ft | 223 kts | 283° |
| 2026-04-23 12:43 | 49.16251 | 16.56429 | 4710 ft | 237 kts | 282° |
| 2026-04-23 12:43 | 49.16475 | 16.53848 | 5359 ft | 251 kts | 282° |
| 2026-04-23 12:44 | 49.16948 | 16.51288 | 5837 ft | 249 kts | 304° |
| 2026-04-23 12:44 | 49.17952 | 16.49152 | 6041 ft | 248 kts | 311° |
| 2026-04-23 12:44 | 49.19004 | 16.47086 | 6118 ft | 246 kts | 311° |
| 2026-04-23 12:44 | 49.20073 | 16.45001 | 6638 ft | 252 kts | 312° |
| 2026-04-23 12:45 | 49.21153 | 16.42879 | 7580 ft | 253 kts | 312° |
| 2026-04-23 12:45 | 49.22240 | 16.40736 | 8509 ft | 257 kts | 312° |
| 2026-04-23 12:45 | 49.23345 | 16.38552 | 9373 ft | 262 kts | 312° |
| 2026-04-23 12:45 | 49.24470 | 16.36320 | 10225 ft | 267 kts | 311° |
| 2026-04-23 12:46 | 49.25636 | 16.34004 | 10683 ft | 287 kts | 312° |
| 2026-04-23 12:46 | 49.26903 | 16.31492 | 11038 ft | 306 kts | 311° |
| 2026-04-23 12:46 | 49.28214 | 16.28873 | 11732 ft | 313 kts | 311° |
| 2026-04-23 12:46 | 49.29548 | 16.26202 | 12543 ft | 317 kts | 312° |
| 2026-04-23 12:47 | 49.30893 | 16.23488 | 13371 ft | 323 kts | 309° |
| 2026-04-23 12:47 | 49.32077 | 16.20505 | 14181 ft | 332 kts | 303° |
| 2026-04-23 12:47 | 49.33147 | 16.17346 | 14981 ft | 336 kts | 302° |
| 2026-04-23 12:47 | 49.34201 | 16.14132 | 15808 ft | 339 kts | 302° |
| 2026-04-23 12:48 | 49.35275 | 16.10892 | 16615 ft | 343 kts | 302° |
| 2026-04-23 12:48 | 49.36377 | 16.07620 | 17402 ft | 347 kts | 302° |
| 2026-04-23 12:48 | 49.37502 | 16.04319 | 18198 ft | 352 kts | 302° |
| 2026-04-23 12:48 | 49.38649 | 16.00976 | 18902 ft | 356 kts | 303° |
| 2026-04-23 12:49 | 49.39810 | 15.97597 | 19582 ft | 360 kts | 303° |
| 2026-04-23 12:49 | 49.40983 | 15.94178 | 20247 ft | 364 kts | 303° |
| 2026-04-23 12:49 | 49.42166 | 15.90723 | 20902 ft | 368 kts | 303° |
| 2026-04-23 12:49 | 49.43362 | 15.87225 | 21536 ft | 372 kts | 303° |
| 2026-04-23 12:50 | 49.44574 | 15.83675 | 22152 ft | 377 kts | 304° |
| 2026-04-23 12:50 | 49.45797 | 15.80086 | 22766 ft | 381 kts | 304° |
| 2026-04-23 12:50 | 49.47033 | 15.76450 | 23404 ft | 385 kts | 304° |
| 2026-04-23 12:50 | 49.48279 | 15.72781 | 23962 ft | 389 kts | 304° |
| 2026-04-23 12:51 | 49.49537 | 15.69072 | 24445 ft | 394 kts | 304° |
| 2026-04-23 12:51 | 49.50809 | 15.65312 | 24932 ft | 398 kts | 305° |
| 2026-04-23 12:51 | 49.52090 | 15.61521 | 25419 ft | 401 kts | 305° |
| 2026-04-23 12:51 | 49.53383 | 15.57690 | 25877 ft | 405 kts | 305° |
| 2026-04-23 12:52 | 49.54690 | 15.53816 | 26333 ft | 409 kts | 305° |
| 2026-04-23 12:52 | 49.56005 | 15.49906 | 26801 ft | 413 kts | 305° |
| 2026-04-23 12:52 | 49.57330 | 15.45960 | 27253 ft | 417 kts | 305° |
| 2026-04-23 12:52 | 49.58667 | 15.41973 | 27689 ft | 421 kts | 305° |
| 2026-04-23 12:53 | 49.60016 | 15.37948 | 28107 ft | 425 kts | 305° |
| 2026-04-23 12:53 | 49.61375 | 15.33882 | 28523 ft | 429 kts | 305° |
| 2026-04-23 12:53 | 49.62727 | 15.29830 | 28925 ft | 432 kts | 305° |
| 2026-04-23 12:53 | 49.64107 | 15.25688 | 29324 ft | 436 kts | 306° |
| 2026-04-23 12:54 | 49.65495 | 15.21514 | 29717 ft | 439 kts | 306° |
| 2026-04-23 12:54 | 49.66895 | 15.17298 | 30093 ft | 443 kts | 306° |
| 2026-04-23 12:54 | 49.68306 | 15.13044 | 30421 ft | 447 kts | 305° |
| 2026-04-23 12:54 | 49.69721 | 15.08768 | 30755 ft | 449 kts | 305° |
| 2026-04-23 12:55 | 49.70960 | 15.04287 | 31145 ft | 459 kts | 296° |
| 2026-04-23 12:55 | 49.71906 | 14.99578 | 31641 ft | 459 kts | 294° |
| 2026-04-23 12:55 | 49.72787 | 14.94849 | 32116 ft | 458 kts | 293° |
| 2026-04-23 12:55 | 49.73649 | 14.90111 | 32545 ft | 458 kts | 293° |
| 2026-04-23 12:56 | 49.74512 | 14.85377 | 32964 ft | 458 kts | 293° |
| 2026-04-23 12:56 | 49.75381 | 14.80653 | 33400 ft | 457 kts | 293° |
| 2026-04-23 12:56 | 49.76255 | 14.75938 | 33831 ft | 455 kts | 294° |
| 2026-04-23 12:56 | 49.77133 | 14.71242 | 34241 ft | 455 kts | 294° |
| 2026-04-23 12:57 | 49.78014 | 14.66538 | 34576 ft | 454 kts | 293° |
| 2026-04-23 12:57 | 49.78894 | 14.61850 | 34944 ft | 453 kts | 293° |
| 2026-04-23 12:57 | 49.79768 | 14.57176 | 35313 ft | 452 kts | 293° |
| 2026-04-23 12:57 | 49.80640 | 14.52511 | 35679 ft | 451 kts | 293° |
| 2026-04-23 12:58 | 49.81510 | 14.47840 | 36003 ft | 450 kts | 293° |
| 2026-04-23 12:58 | 49.82376 | 14.43180 | 36216 ft | 453 kts | 292° |
| 2026-04-23 12:58 | 49.84129 | 14.33728 | 36194 ft | 457 kts | 292° |
| 2026-04-23 12:59 | 49.85849 | 14.24349 | 36192 ft | 449 kts | 292° |
| 2026-04-23 12:59 | 49.87553 | 14.15034 | 36208 ft | 450 kts | 292° |
| 2026-04-23 13:00 | 49.89256 | 14.05694 | 36206 ft | 451 kts | 292° |
| 2026-04-23 13:00 | 49.90956 | 13.96312 | 36206 ft | 452 kts | 292° |
| 2026-04-23 13:01 | 49.92652 | 13.86907 | 36202 ft | 453 kts | 292° |
| 2026-04-23 13:01 | 49.94341 | 13.77484 | 36212 ft | 454 kts | 292° |
| 2026-04-23 13:02 | 49.96028 | 13.68027 | 36212 ft | 455 kts | 292° |
| 2026-04-23 13:02 | 49.97709 | 13.58546 | 36206 ft | 455 kts | 291° |
| 2026-04-23 13:03 | 49.99370 | 13.49130 | 36219 ft | 455 kts | 291° |
| 2026-04-23 13:03 | 50.01035 | 13.39645 | 36222 ft | 455 kts | 291° |
| 2026-04-23 13:04 | 50.02691 | 13.30162 | 36227 ft | 455 kts | 291° |
| 2026-04-23 13:04 | 50.04341 | 13.20664 | 36231 ft | 455 kts | 291° |
| 2026-04-23 13:05 | 50.05981 | 13.11169 | 36239 ft | 455 kts | 291° |
| 2026-04-23 13:05 | 50.07615 | 13.01660 | 36236 ft | 455 kts | 290° |
| 2026-04-23 13:06 | 50.10052 | 12.87376 | 36237 ft | 455 kts | 290° |
| 2026-04-23 13:07 | 50.11669 | 12.77838 | 36241 ft | 456 kts | 290° |
| 2026-04-23 13:07 | 50.13281 | 12.68274 | 36236 ft | 457 kts | 290° |
| 2026-04-23 13:08 | 50.14885 | 12.58701 | 36250 ft | 457 kts | 290° |
| 2026-04-23 13:08 | 50.16484 | 12.49108 | 36250 ft | 457 kts | 290° |
| 2026-04-23 13:09 | 50.18076 | 12.39507 | 36259 ft | 457 kts | 289° |
| 2026-04-23 13:09 | 50.19741 | 12.29941 | 36263 ft | 456 kts | 292° |
| 2026-04-23 13:10 | 50.21705 | 12.20553 | 36272 ft | 455 kts | 294° |
| 2026-04-23 13:10 | 50.23711 | 12.11250 | 36262 ft | 455 kts | 293° |
| 2026-04-23 13:11 | 50.25697 | 12.01856 | 36266 ft | 455 kts | 293° |
| 2026-04-23 13:11 | 50.27652 | 11.92441 | 36264 ft | 456 kts | 292° |
| 2026-04-23 13:12 | 50.29594 | 11.83004 | 36264 ft | 456 kts | 292° |
| 2026-04-23 13:12 | 50.31529 | 11.73556 | 36265 ft | 456 kts | 292° |
| 2026-04-23 13:13 | 50.33457 | 11.64101 | 36266 ft | 456 kts | 292° |
| 2026-04-23 13:13 | 50.35378 | 11.54634 | 36264 ft | 456 kts | 292° |
| 2026-04-23 13:14 | 50.37290 | 11.45171 | 36275 ft | 456 kts | 292° |
| 2026-04-23 13:14 | 50.39193 | 11.35706 | 36285 ft | 455 kts | 291° |
| 2026-04-23 13:15 | 50.41087 | 11.26238 | 36279 ft | 455 kts | 291° |
| 2026-04-23 13:15 | 50.42974 | 11.16765 | 36282 ft | 455 kts | 291° |
| 2026-04-23 13:16 | 50.44854 | 11.07277 | 36282 ft | 456 kts | 291° |
| 2026-04-23 13:16 | 50.46728 | 10.97769 | 36285 ft | 456 kts | 291° |
| 2026-04-23 13:17 | 50.48595 | 10.88254 | 36304 ft | 456 kts | 291° |
| 2026-04-23 13:17 | 50.50456 | 10.78721 | 36303 ft | 457 kts | 290° |
| 2026-04-23 13:18 | 50.52311 | 10.69172 | 36311 ft | 457 kts | 290° |
| 2026-04-23 13:18 | 50.54159 | 10.59612 | 36316 ft | 457 kts | 290° |
| 2026-04-23 13:19 | 50.55988 | 10.50100 | 36296 ft | 458 kts | 290° |
| 2026-04-23 13:19 | 50.57825 | 10.40504 | 36298 ft | 458 kts | 290° |
| 2026-04-23 13:20 | 50.59652 | 10.30906 | 36319 ft | 458 kts | 289° |
| 2026-04-23 13:20 | 50.61474 | 10.21285 | 36310 ft | 459 kts | 289° |
| 2026-04-23 13:21 | 50.63288 | 10.11659 | 36323 ft | 458 kts | 289° |
| 2026-04-23 13:21 | 50.65094 | 10.02026 | 36310 ft | 459 kts | 289° |
| 2026-04-23 13:22 | 50.66892 | 9.92387 | 36313 ft | 458 kts | 289° |
| 2026-04-23 13:22 | 50.68683 | 9.82735 | 36324 ft | 458 kts | 289° |
| 2026-04-23 13:23 | 50.70464 | 9.73084 | 36323 ft | 458 kts | 288° |
| 2026-04-23 13:23 | 50.72238 | 9.63431 | 36320 ft | 458 kts | 288° |
| 2026-04-23 13:24 | 50.74152 | 9.53858 | 36323 ft | 457 kts | 292° |
| 2026-04-23 13:24 | 50.76341 | 9.44439 | 36324 ft | 457 kts | 292° |
| 2026-04-23 13:25 | 50.78544 | 9.35021 | 36322 ft | 457 kts | 292° |
| 2026-04-23 13:25 | 50.80707 | 9.25573 | 36334 ft | 457 kts | 291° |
| 2026-04-23 13:26 | 50.82843 | 9.16112 | 36330 ft | 457 kts | 291° |
| 2026-04-23 13:26 | 50.84971 | 9.06625 | 36327 ft | 457 kts | 291° |
| 2026-04-23 13:27 | 50.87093 | 8.97134 | 36330 ft | 457 kts | 291° |
| 2026-04-23 13:27 | 50.89208 | 8.87631 | 36326 ft | 458 kts | 291° |
| 2026-04-23 13:28 | 50.90960 | 8.79724 | 36325 ft | 457 kts | 291° |
| 2026-04-23 13:28 | 50.93061 | 8.70208 | 36331 ft | 458 kts | 290° |
| 2026-04-23 13:29 | 50.95153 | 8.60685 | 36331 ft | 458 kts | 290° |
| 2026-04-23 13:29 | 50.97240 | 8.51144 | 36332 ft | 458 kts | 290° |
| 2026-04-23 13:30 | 50.99318 | 8.41600 | 36334 ft | 457 kts | 290° |
| 2026-04-23 13:30 | 51.01388 | 8.32055 | 36339 ft | 457 kts | 290° |
| 2026-04-23 13:31 | 51.03425 | 8.22490 | 36343 ft | 457 kts | 289° |
| 2026-04-23 13:31 | 51.05426 | 8.12906 | 36344 ft | 457 kts | 289° |
| 2026-04-23 13:32 | 51.07417 | 8.03325 | 36350 ft | 456 kts | 289° |